Detalii statie FERMA VISANI-IMB [000011A7]

Toti senzorii

Date Temperatura solului [C]Precipitatii [mm]Voltaj baterie [mV]Leaf Wetness [Min]HC Air temperature [C]HC Relative humidity [%]Punctul de roua [C]
medieminmaxsumaultimatimpmedieminmaxmediemediemin
2019-08-15 20:00:00 0 6522 0 21.18 20.61 21.79 0 0 0
2019-08-15 20:30:00 0 6512 0 20.06 19.68 20.43 0 0 0
2019-08-15 21:00:00 0 6512 0 19.26 19.04 19.53 0 0 0
2019-08-15 21:30:00 0 6512 0 18.82 18.63 18.96 0 0 0
2019-08-15 22:00:00 0 6502 0 18.41 18.25 18.58 0 0 0
2019-08-15 22:30:00 0 6502 0 17.93 17.65 18.15 0 0 0
2019-08-15 23:00:00 0 6502 0 17.27 17.02 17.53 0 0 0
2019-08-15 23:30:00 0 6494 0 16.89 16.85 17 0 0 0
2019-08-16 00:00:00 0 6502 0 16.64 16.53 16.76 0 0 0
2019-08-16 00:30:00 0 6502 0 16.53 16.26 16.74 0 0 0
2019-08-16 01:00:00 0 6494 0 16.01 15.77 16.2 0 0 0
2019-08-16 01:30:00 0 6494 0 15.52 15.41 15.68 0 0 0
2019-08-16 02:00:00 0 6494 0 15.67 15.6 15.75 0 0 0
2019-08-16 02:30:00 0 6484 0 15.62 15.58 15.66 0 0 0
2019-08-16 03:00:00 0 6494 0 15.64 15.53 15.74 0 0 0
2019-08-16 03:30:00 0 6484 0 15.16 15.02 15.36 0 0 0
2019-08-16 04:00:00 0 6484 0 15.32 15.2 15.51 0 0 0
2019-08-16 04:30:00 0 6484 0 15.68 15.55 15.79 0 0 0
2019-08-16 05:00:00 0 6484 0 16.02 15.87 16.16 0 0 0
2019-08-16 05:30:00 0 6484 0 16.14 16.11 16.16 0 0 0
2019-08-16 06:00:00 0 6484 0 16.26 16.19 16.32 0 0 0
2019-08-16 06:30:00 0 6484 0 16.21 16.18 16.23 0 0 0
2019-08-16 07:00:00 0 6484 0 16.36 16.29 16.41 0 0 0
2019-08-16 07:30:00 0 6484 0 16.5 16.47 16.53 0 0 0
2019-08-16 08:00:00 0 6484 0 16.41 16.36 16.46 0 0 0
2019-08-16 08:30:00 0 6484 0 16.54 16.45 16.69 0 0 0
2019-08-16 09:00:00 0 6542 0 17.6 16.74 18.27 0 0 0
2019-08-16 09:30:00 0 6590 0 19.15 18.69 19.62 0 0 0
2019-08-16 10:00:00 0 6660 0 20.24 19.28 21.45 0 0 0
2019-08-16 10:30:00 0 6650 0 22.24 21.84 23.05 0 0 0
2019-08-16 11:00:00 0 6688 0 23.14 22.5 24.32 0 0 0
2019-08-16 11:30:00 0 6698 0 24.71 24.04 25.4 0 0 0
2019-08-16 12:00:00 0 6698 0 26.16 25.75 26.45 0 0 0
2019-08-16 12:30:00 0 6708 0 26.71 26.42 27.06 0 0 0
2019-08-16 13:00:00 0 6708 0 27.14 26.79 27.41 0 0 0
2019-08-16 13:30:00 0 6698 0 27.78 27.21 28.18 0 0 0
2019-08-16 14:00:00 0 6708 0 28.89 28.54 29.09 0 0 0
2019-08-16 14:30:00 0 6698 0 29.15 28.78 29.61 0 0 0
2019-08-16 15:00:00 0 6698 0 29.24 29.08 29.43 0 0 0
2019-08-16 15:30:00 0 6698 0 29.72 29.51 30.14 0 0 0
2019-08-16 16:00:00 0 6698 0 30.2 29.59 30.72 0 0 0
2019-08-16 16:30:00 0 6678 0 29.79 29.41 30.44 0 0 0
2019-08-16 17:00:00 0 6678 0 29.32 28.96 29.68 0 0 0
2019-08-16 17:30:00 0 6668 0 28.85 28.6 29.23 0 0 0
2019-08-16 18:00:00 0 6620 0 28.38 28.18 28.66 0 0 0
2019-08-16 18:30:00 0 6590 0 27.79 27.15 28.27 0 0 0
2019-08-16 19:00:00 0 6552 0 27.06 26.4 27.44 0 0 0
2019-08-16 19:30:00 0 6542 0 25.32 24.41 26.21 0 0 0